Main page
METAR-TAF:

METAR-TAF

Airports :

Rivne International Airport

Rivne, Ukraine

latitude: 50-35N, longitude: 026-08E, elevation: 231 m

Current weather observation

The report was made 10 hours and 29 minutes ago, at 15:00 UTC
Wind 4 kt from the Southeast, varying between East and South
Temperature -1°C
Humidity 100%
Pressure 1031 hPa
Visibility: 0200 m
freezing fog

METAR: UKLR 171500Z 14002MPS 080V170 0200 FZFG VV001 M01/M01 Q1031 NOSIG

Time: 03:29 (01:29 UTC)

Forecast

The report was made 13 hours and 57 minutes ago, at 11:32 UTC
Forecast valid from 17 at 12 UTC to 17 at 21 UTC
Wind 2 kt from variable directions
Visibility: 0200 m
at a height of 100 ft
freezing fog
Temporary
from 17 at 12 UTC to 17 at 15 UTC
Visibility: 1500 m
Overcast at a height of 400 ft
mist

TAF: UKLR 171132Z 1712/1721 VRB01MPS 0200 FZFG VV001 TXM00/1713Z TNM03/1721Z TEMPO 1712/1715 1500 BR OVC004

Weather observations and forecasts of more than 4000 airports (METAR and TAF reports).

The available stations are represented by yellow and red dots on the map.

Hover mouse over dot to see the name of the station.

Then click to see weather observations and forecasts.

To change the map : click on the green buttons with a black cross to zoom in, on the green button with a dash to zoom out, or on the green arrows for adjacent maps.


METAR-TAF: